EST,Max TemperatureF,Mean TemperatureF,Min TemperatureF,Max Dew PointF,MeanDew PointF,Min DewpointF,Max Humidity, Mean Humidity, Min Humidity, Max Sea Level PressureIn, Mean Sea Level PressureIn, Min Sea Level PressureIn, Max VisibilityMiles, Mean VisibilityMiles, Min VisibilityMiles, Max Wind SpeedMPH, Mean Wind SpeedMPH, Max Gust SpeedMPH,PrecipitationIn, CloudCover, Events, WindDirDegrees
2013-12-1,48,41,34,31,30,28,85,69,46,30.07,30.05,30.02,10,10,10,4,1,,0.00,7,,310
2013-12-2,48,39,28,32,30,27,96,76,48,30.01,29.94,29.88,10,9,6,5,0,,0.00,5,,317
2013-12-3,54,41,28,35,30,26,96,78,43,30.01,29.93,29.88,10,7,4,7,2,,0.00,3,,313
2013-12-4,51,40,28,42,36,27,92,80,63,30.12,30.09,30.02,8,6,3,4,1,,0.00,5,,325
2013-12-5,55,50,46,55,49,42,100,96,83,30.11,30.02,29.93,7,1,0,5,1,,0.03,8,Fog-Rain,322
2013-12-6,54,46,37,54,43,35,100,92,82,30.16,30.01,29.87,10,4,0,13,4,20,1.15,8,Fog-Rain,345
2013-12-7,39,33,27,35,27,16,93,75,55,30.52,30.32,30.10,10,10,4,16,6,22,0.08,3,Rain,336
2013-12-8,32,26,19,27,22,14,93,79,50,30.58,30.48,30.35,10,6,0,8,4,,0.00,6,Fog-Rain-Snow,26
2013-12-9,36,32,28,35,31,27,100,93,87,30.33,30.10,29.97,10,4,0,12,5,,0.22,7,Fog-Rain,37
2013-12-10,33,26,19,32,29,16,100,92,74,30.15,29.97,29.89,10,3,0,7,2,,0.09,5,Fog-Snow,235
2013-12-11,32,26,19,18,15,13,85,64,50,30.35,30.26,30.17,10,10,10,8,2,,0.00,0,,252
2013-12-12,27,22,16,15,7,3,72,53,39,30.38,30.28,30.18,10,10,10,13,6,20,0.00,1,,307
2013-12-13,35,22,10,19,13,6,85,68,42,30.34,30.21,30.16,10,10,10,14,2,23,0.00,2,,287
2013-12-14,28,24,19,25,19,17,92,82,63,30.48,30.24,29.76,10,4,0,14,6,23,0.00,7,Fog-Rain-Snow,45
2013-12-15,39,34,28,32,28,18,96,81,54,29.85,29.64,29.53,10,8,2,13,8,22,0.26,6,Rain,318
2013-12-16,30,21,12,21,10,5,84,57,38,30.24,30.09,29.85,10,10,9,14,6,25,0.00,1,Snow,293
2013-12-17,28,21,14,25,19,10,93,86,74,30.22,30.06,29.94,10,5,0,8,2,,0.00,7,Fog-Rain-Snow,351
2013-12-18,36,23,10,21,16,8,92,76,52,30.20,30.07,29.96,10,9,6,15,4,22,0.00,3,,296
2013-12-19,43,26,10,27,19,7,89,76,47,30.20,30.12,30.04,10,9,5,5,1,,0.00,0,,271
2013-12-20,50,38,26,32,28,24,92,76,44,30.10,30.04,29.97,10,10,6,5,1,,0.00,2,Rain,189
2013-12-21,59,44,30,47,36,29,96,84,64,30.00,29.96,29.91,10,10,10,6,1,,0.00,2,,302
2013-12-22,68,52,37,61,53,35,93,82,70,29.94,29.87,29.80,10,10,9,10,3,21,0.00,5,Rain,205
2013-12-23,59,50,39,59,51,27,100,93,60,30.16,29.97,29.89,10,5,0,17,3,32,0.64,7,Fog-Rain,346
2013-12-24,39,32,25,27,21,9,88,60,45,30.37,30.20,30.12,10,9,2,17,9,25,0.00,3,Snow,323
2013-12-25,27,22,18,14,8,4,60,51,41,30.54,30.48,30.39,10,10,10,14,7,23,0.00,0,,295
2013-12-26,35,27,19,25,21,16,92,79,67,30.41,30.26,30.17,10,9,1,7,2,,0.00,5,Snow,268
2013-12-27,41,29,17,23,18,13,92,73,43,30.37,30.32,30.28,10,9,6,9,1,,0.00,2,,242
2013-12-28,55,36,17,27,22,15,92,70,31,30.29,30.17,30.08,10,10,9,6,1,18,0.00,1,,283
2013-12-29,43,36,28,41,35,25,97,90,78,30.07,29.70,29.44,10,6,1,12,3,20,1.00,6,Rain,355
2013-12-30,44,34,23,36,25,10,100,71,49,30.19,29.98,29.73,10,10,2,13,4,22,0.00,4,,335
2013-12-31,30,23,16,25,15,8,85,65,47,30.30,30.16,30.07,10,8,1,12,4,21,0.00,5,Snow,264